Hlavní strana
METAR-TAF:

METAR-TAF

Letiště :

Nador, Maroko

zeměpisná šířka: 34-59-20N, zeměpisná délka: 003-01-42W, výška: 175 m

Aktuální stav počasí

Zpráva byla vytvořena před 37 minutami, v 09:00 UTC
Severovýchodní vítr 2 kt
Teplota 18°C
Vlhkost vzduchu 64%
Tlak 1021 hPa
Viditelnost: 6000 m
Oblačno až skoro zataženo ve výšce 2000 ft

METAR: GMMW 100900Z 05002KT 6000 BKN020 18/11 Q1021 NOSIG

Čas: 10:37 (09:37 UTC)

Předpověď počasí

Zpráva byla vytvořena před 4 hodinami a 37 minutami, v 05:00 UTC
Předpověď platná od 10 v 06 UTC do 11 v 12 UTC
vítr z různých směrů 2 kt
Viditelnost: 6000 m
Polojasno ve výšce 1000 ft
Polojasno ve výšce 2600 ft

TAF: GMMW 100500Z 1006/1112 VRB02KT 6000 SCT010 SCT026

Stav a předpovědi počasí z více než 4 000 letišť (zprávy METAR a TAF).

Červené a žluté tečky na mapě představují dostupné meteorologické stanice.

Když kurzor umístíte na tečku, zobrazí se název stanice.

Pak kliknutím zobrazíte stav a předpověď počasí.

Chcete-li změnit mapu, kliknutím na zelené tlačítko se znaménkem +mapu přiblížíte, kliknutím na zelené tlačítko se znaménkem – mapu oddálíte a kliknutím na zelené šipky přejdete na sousední mapy.


METAR-TAF: